Time;durP1;ratioP1;P1;durP2;ratioP2;P2;SDS_P1;SDS_P2;PMS_P1;PMS_P2;Temp;Humidity;BMP_temperature;BMP_pressure;BME280_temperature;BME280_humidity;BME280_pressure;Samples;Min_cycle;Max_cycle;Signal;HPM_P1;HPM_P2
2020/12/03 00:01:32;;;;;;;76.38;35.78;;;2.10;94.30;;;;;;5114482;28;20442;-71
2020/12/03 00:04:03;;;;;;;71.38;35.00;;;2.10;94.30;;;;;;5109702;28;20023;-72
2020/12/03 00:06:35;;;;;;;87.00;38.70;;;2.10;94.20;;;;;;5093594;28;20024;-71
2020/12/03 00:09:13;;;;;;;78.20;37.35;;;2.10;94.10;;;;;;5098810;28;20459;-71
2020/12/03 00:11:42;;;;;;;78.82;38.95;;;2.10;94.00;;;;;;5114805;28;20063;-71
2020/12/03 00:14:08;;;;;;;77.55;36.63;;;2.10;94.00;;;;;;5093265;28;20024;-71
2020/12/03 00:16:34;;;;;;;75.40;35.95;;;2.10;94.10;;;;;;5092997;28;20043;-71
2020/12/03 00:19:02;;;;;;;74.80;37.50;;;2.10;94.10;;;;;;5096056;28;20019;-71
2020/12/03 00:21:41;;;;;;;74.25;34.40;;;2.20;94.00;;;;;;5093182;28;20028;-71
2020/12/03 00:24:09;;;;;;;75.03;34.92;;;2.20;94.00;;;;;;5092790;28;20089;-71
2020/12/03 00:26:36;;;;;;;74.68;34.97;;;2.20;94.00;;;;;;5093672;28;20032;-71
2020/12/03 00:29:01;;;;;;;78.45;35.97;;;2.20;93.80;;;;;;5098460;28;20475;-71
2020/12/03 00:31:27;;;;;;;70.75;34.03;;;2.20;93.70;;;;;;5113921;28;20034;-71
2020/12/03 00:33:53;;;;;;;82.10;37.55;;;2.20;93.70;;;;;;5094478;28;20572;-70
2020/12/03 00:36:20;;;;;;;73.43;34.95;;;2.20;93.60;;;;;;5093433;28;20040;-71
2020/12/03 00:39:07;;;;;;;73.00;33.85;;;2.20;93.60;;;;;;5109985;28;20436;-71
2020/12/03 00:41:33;;;;;;;70.82;35.15;;;2.20;93.60;;;;;;5093809;28;20078;-71
2020/12/03 00:43:59;;;;;;;76.00;35.67;;;2.10;93.70;;;;;;5093452;28;20463;-71
2020/12/03 00:46:29;;;;;;;74.85;35.33;;;2.10;93.40;;;;;;5093254;28;20115;-71
2020/12/03 00:48:55;;;;;;;72.60;34.90;;;2.10;93.40;;;;;;5096362;28;20039;-70
2020/12/03 00:51:20;;;;;;;80.07;36.13;;;2.10;93.40;;;;;;5092790;28;20429;-71
2020/12/03 00:53:46;;;;;;;77.70;37.03;;;2.10;93.40;;;;;;5092775;28;20365;-71
2020/12/03 00:56:11;;;;;;;69.10;35.33;;;2.10;93.40;;;;;;5092506;28;20119;-71
2020/12/03 00:58:37;;;;;;;74.78;35.92;;;2.10;93.30;;;;;;5092383;28;20060;-71
2020/12/03 01:01:03;;;;;;;81.68;37.38;;;2.10;93.30;;;;;;5092526;28;20024;-71
2020/12/03 01:03:28;;;;;;;82.22;36.00;;;2.10;93.20;;;;;;5092774;28;20028;-71
2020/12/03 01:05:53;;;;;;;77.68;36.90;;;2.00;93.20;;;;;;5111367;28;20023;-71
2020/12/03 01:08:19;;;;;;;81.03;38.40;;;2.00;93.30;;;;;;5092571;28;20059;-71
2020/12/03 01:10:44;;;;;;;74.95;34.90;;;2.00;93.30;;;;;;5108699;28;20107;-71
2020/12/03 01:13:10;;;;;;;80.43;36.60;;;1.90;93.30;;;;;;5092417;28;20032;-71
2020/12/03 01:15:35;;;;;;;78.70;37.22;;;1.90;93.30;;;;;;5092283;28;20039;-73
2020/12/03 01:18:01;;;;;;;80.47;36.42;;;1.90;93.30;;;;;;5095588;28;20031;-73
2020/12/03 01:20:29;;;;;;;72.75;34.35;;;1.90;93.30;;;;;;5106354;28;20459;-73
2020/12/03 01:22:55;;;;;;;85.22;36.22;;;1.80;93.30;;;;;;5095432;28;20220;-73
2020/12/03 01:25:22;;;;;;;77.00;37.72;;;1.80;93.30;;;;;;5091971;28;20494;-73
2020/12/03 01:27:47;;;;;;;77.10;35.85;;;1.80;93.30;;;;;;5091808;28;20055;-73
2020/12/03 01:30:14;;;;;;;82.97;38.17;;;1.80;93.50;;;;;;5093944;28;20464;-73
2020/12/03 01:32:40;;;;;;;85.35;37.40;;;1.80;93.40;;;;;;5094319;28;20027;-72
2020/12/03 01:35:08;;;;;;;75.97;35.90;;;1.70;93.30;;;;;;5073996;28;20589;-72
2020/12/03 01:37:34;;;;;;;69.13;34.65;;;1.70;93.40;;;;;;5108611;28;20035;-71
2020/12/03 01:39:59;;;;;;;71.95;35.78;;;1.70;93.40;;;;;;5102743;28;20059;-72
2020/12/03 01:42:25;;;;;;;80.78;38.97;;;1.70;93.50;;;;;;5099403;28;20502;-71
2020/12/03 01:44:53;;;;;;;84.70;37.60;;;1.70;93.50;;;;;;5086505;28;20115;-72
2020/12/03 01:47:36;;;;;;;79.75;37.90;;;1.70;93.60;;;;;;5092122;28;20031;-73
2020/12/03 01:50:07;;;;;;;84.22;37.83;;;1.70;93.60;;;;;;5093402;28;20544;-73
2020/12/03 01:52:33;;;;;;;80.20;36.45;;;1.70;93.60;;;;;;5109975;28;20046;-73
2020/12/03 01:54:58;;;;;;;81.03;38.75;;;1.70;93.60;;;;;;5110081;28;20035;-73
2020/12/03 01:57:52;;;;;;;80.45;36.47;;;1.70;93.60;;;;;;5078556;28;20071;-73
2020/12/03 02:00:19;;;;;;;78.82;37.35;;;1.70;93.60;;;;;;5078933;28;20557;-73
2020/12/03 02:02:50;;;;;;;70.65;35.30;;;1.70;93.50;;;;;;5091898;28;20073;-72
2020/12/03 02:05:20;;;;;;;85.68;38.92;;;1.70;93.40;;;;;;5091986;28;20032;-72
2020/12/03 02:07:46;;;;;;;76.50;35.58;;;1.70;93.40;;;;;;5107461;28;20063;-73
2020/12/03 02:10:13;;;;;;;88.45;39.42;;;1.70;93.40;;;;;;5102434;28;20032;-74
2020/12/03 02:12:38;;;;;;;74.25;33.63;;;1.60;93.30;;;;;;5112382;28;20032;-73
2020/12/03 02:15:05;;;;;;;78.38;35.30;;;1.60;93.30;;;;;;5100936;28;20057;-73
2020/12/03 02:17:31;;;;;;;79.80;37.60;;;1.60;93.30;;;;;;5111888;28;20034;-73
2020/12/03 02:19:59;;;;;;;80.25;37.15;;;1.60;93.30;;;;;;5109395;28;20030;-73
2020/12/03 02:22:24;;;;;;;78.35;37.30;;;1.60;93.30;;;;;;5091625;28;20057;-73
2020/12/03 02:24:50;;;;;;;73.93;36.67;;;1.50;93.20;;;;;;5093985;28;20068;-72
2020/12/03 02:27:35;;;;;;;79.57;37.38;;;1.50;93.30;;;;;;5091908;28;20039;-72
2020/12/03 02:30:21;;;;;;;76.15;37.70;;;1.50;93.20;;;;;;5093619;28;20024;-72
2020/12/03 02:33:07;;;;;;;86.68;37.55;;;1.50;93.20;;;;;;5089517;28;20047;-73
2020/12/03 02:35:33;;;;;;;76.20;35.67;;;1.50;93.30;;;;;;5105088;28;20479;-73
2020/12/03 02:37:59;;;;;;;84.32;39.03;;;1.50;93.30;;;;;;5093733;28;20015;-72
2020/12/03 02:40:24;;;;;;;77.07;38.10;;;1.50;93.20;;;;;;5107421;28;20118;-73
2020/12/03 02:42:50;;;;;;;87.18;39.95;;;1.50;93.20;;;;;;5095112;28;20543;-73
2020/12/03 02:45:16;;;;;;;78.68;37.50;;;1.40;93.20;;;;;;5100089;28;20024;-73
2020/12/03 02:47:42;;;;;;;83.97;39.58;;;1.40;93.30;;;;;;5115992;28;20047;-73
2020/12/03 02:50:07;;;;;;;78.13;37.65;;;1.40;93.30;;;;;;5111738;28;20516;-73
2020/12/03 02:52:33;;;;;;;81.53;36.50;;;1.40;93.40;;;;;;5115485;28;20046;-73
2020/12/03 02:54:58;;;;;;;77.22;37.22;;;1.50;93.40;;;;;;5108615;28;20043;-72
2020/12/03 02:57:24;;;;;;;77.75;37.10;;;1.50;93.30;;;;;;5094338;28;20035;-72
2020/12/03 02:59:49;;;;;;;88.95;39.97;;;1.50;93.30;;;;;;5095891;28;20468;-72
2020/12/03 03:02:16;;;;;;;76.78;36.90;;;1.50;93.30;;;;;;5115581;28;20355;-72
2020/12/03 03:04:42;;;;;;;86.80;38.95;;;1.50;93.20;;;;;;5095578;28;20080;-72
2020/12/03 03:07:07;;;;;;;79.65;37.78;;;1.50;93.20;;;;;;5103505;28;20024;-72
2020/12/03 03:09:33;;;;;;;85.97;38.95;;;1.50;93.20;;;;;;5105519;28;20020;-72
2020/12/03 03:11:58;;;;;;;85.35;39.47;;;1.50;93.20;;;;;;5112744;28;20038;-72
2020/12/03 03:14:24;;;;;;;84.63;38.17;;;1.50;93.20;;;;;;5084330;28;20031;-72
2020/12/03 03:16:49;;;;;;;78.82;37.33;;;1.50;93.20;;;;;;5096117;28;20040;-72
2020/12/03 03:19:16;;;;;;;92.43;39.42;;;1.50;93.20;;;;;;5097412;28;20036;-72
2020/12/03 03:21:42;;;;;;;92.95;38.22;;;1.50;93.20;;;;;;5098849;28;20461;-72
2020/12/03 03:24:08;;;;;;;88.70;38.92;;;1.50;93.20;;;;;;5079589;28;20070;-72
2020/12/03 03:26:33;;;;;;;99.45;44.25;;;1.50;93.20;;;;;;5099055;28;20024;-72
2020/12/03 03:28:59;;;;;;;90.75;42.15;;;1.50;93.20;;;;;;5098512;28;20451;-71
2020/12/03 03:31:24;;;;;;;95.97;42.22;;;1.50;93.20;;;;;;5101126;28;20028;-72
2020/12/03 03:33:50;;;;;;;90.68;40.65;;;1.50;93.20;;;;;;5094981;28;21300;-72
2020/12/03 03:36:16;;;;;;;95.30;42.25;;;1.50;93.10;;;;;;5094293;28;20032;-72
2020/12/03 03:38:42;;;;;;;86.88;40.05;;;1.50;93.20;;;;;;5097891;28;20070;-72
2020/12/03 03:41:09;;;;;;;91.38;41.42;;;1.50;93.20;;;;;;5095591;28;20115;-72
2020/12/03 03:43:34;;;;;;;90.65;41.85;;;1.50;93.20;;;;;;5097773;28;20027;-72
2020/12/03 03:46:00;;;;;;;88.75;41.95;;;1.50;93.20;;;;;;5113525;28;20028;-71
2020/12/03 03:48:26;;;;;;;91.85;42.22;;;1.50;93.20;;;;;;5112773;28;20050;-72
2020/12/03 03:50:51;;;;;;;98.40;41.35;;;1.60;93.20;;;;;;5075611;28;20028;-72
2020/12/03 03:53:17;;;;;;;97.88;43.05;;;1.60;93.20;;;;;;5093850;28;20044;-72
2020/12/03 03:55:42;;;;;;;89.15;41.67;;;1.60;93.20;;;;;;5098674;28;20126;-72
2020/12/03 03:58:08;;;;;;;87.80;42.83;;;1.60;93.20;;;;;;5114097;28;20027;-72
2020/12/03 04:00:40;;;;;;;95.18;43.63;;;1.60;93.10;;;;;;5096516;28;20624;-72
2020/12/03 04:03:08;;;;;;;95.03;43.10;;;1.60;93.10;;;;;;5094778;28;20028;-72
2020/12/03 04:05:34;;;;;;;93.93;43.17;;;1.60;93.00;;;;;;5112928;28;20161;-72
2020/12/03 04:07:59;;;;;;;97.28;44.20;;;1.70;93.00;;;;;;5096951;28;20110;-72
2020/12/03 04:10:25;;;;;;;99.05;43.35;;;1.60;93.00;;;;;;5093758;28;20032;-72
2020/12/03 04:12:51;;;;;;;94.45;42.05;;;1.70;93.00;;;;;;5094295;28;20024;-71
2020/12/03 04:15:17;;;;;;;89.55;43.90;;;1.60;92.90;;;;;;5108117;28;20039;-72
2020/12/03 04:18:02;;;;;;;101.90;44.95;;;1.60;92.80;;;;;;5079615;28;20064;-72
2020/12/03 04:20:27;;;;;;;96.78;43.80;;;1.60;92.90;;;;;;5109357;28;20028;-72
2020/12/03 04:22:53;;;;;;;92.63;42.58;;;1.60;92.90;;;;;;5093150;28;20031;-72
2020/12/03 04:25:18;;;;;;;102.65;44.03;;;1.60;92.80;;;;;;5093623;28;20096;-72
2020/12/03 04:27:44;;;;;;;97.70;44.13;;;1.60;92.80;;;;;;5096984;28;20095;-72
2020/12/03 04:30:11;;;;;;;95.40;43.15;;;1.60;92.90;;;;;;5093145;28;20031;-72
2020/12/03 04:32:37;;;;;;;99.20;44.58;;;1.70;92.90;;;;;;5115093;27;20023;-72
2020/12/03 04:35:04;;;;;;;101.18;45.97;;;1.70;92.90;;;;;;5133948;27;20019;-72
2020/12/03 04:37:30;;;;;;;101.57;43.15;;;1.70;92.90;;;;;;5092773;28;20562;-72
2020/12/03 04:39:55;;;;;;;108.85;46.92;;;1.60;92.80;;;;;;5093597;28;20052;-72
2020/12/03 04:42:23;;;;;;;102.95;44.25;;;1.70;92.90;;;;;;5107507;28;20032;-72
2020/12/03 04:44:53;;;;;;;91.82;43.25;;;1.70;92.90;;;;;;5124882;27;20083;-72
2020/12/03 04:47:59;;;;;;;97.78;45.95;;;1.70;92.90;;;;;;5097176;27;20044;-71
2020/12/03 04:50:43;;;;;;;99.80;42.80;;;1.70;92.90;;;;;;5093827;28;20044;-71
2020/12/03 04:53:30;;;;;;;100.88;45.28;;;1.70;92.80;;;;;;5092943;28;20052;-72
2020/12/03 04:56:01;;;;;;;95.72;42.70;;;1.70;92.90;;;;;;5091400;28;20039;-71
2020/12/03 04:58:41;;;;;;;106.75;45.17;;;1.70;92.80;;;;;;5092835;28;20059;-72
2020/12/03 05:01:33;;;;;;;104.97;44.72;;;1.70;92.90;;;;;;5082877;28;20040;-72
2020/12/03 05:04:11;;;;;;;94.55;43.03;;;1.80;92.90;;;;;;5093458;28;20470;-69
2020/12/03 05:07:03;;;;;;;100.22;44.90;;;1.80;92.90;;;;;;5093082;28;20032;-71
2020/12/03 05:09:54;;;;;;;105.07;45.97;;;1.80;92.90;;;;;;5105746;28;20031;-70
2020/12/03 05:12:33;;;;;;;102.93;43.95;;;1.80;92.80;;;;;;5092691;28;20044;-70
2020/12/03 05:15:13;;;;;;;101.80;44.10;;;1.90;92.80;;;;;;5092284;28;20068;-70
2020/12/03 05:17:43;;;;;;;104.93;45.05;;;1.90;92.70;;;;;;5092536;28;20039;-71
2020/12/03 05:20:37;;;;;;;103.90;44.45;;;1.90;92.70;;;;;;5093697;28;20024;-71
2020/12/03 05:23:11;;;;;;;97.85;43.78;;;1.90;92.70;;;;;;5093237;28;20174;-71
2020/12/03 05:25:37;;;;;;;107.15;44.00;;;1.90;92.70;;;;;;5085992;28;20129;-71
2020/12/03 05:28:29;;;;;;;102.45;44.85;;;1.90;92.70;;;;;;5113039;28;20114;-71
2020/12/03 05:31:06;;;;;;;91.53;42.40;;;2.00;92.70;;;;;;5097504;28;20488;-71
2020/12/03 05:33:32;;;;;;;97.32;42.50;;;1.90;92.70;;;;;;5112222;28;20039;-71
2020/12/03 05:35:58;;;;;;;94.15;43.15;;;2.00;92.70;;;;;;5107251;28;20040;-71
2020/12/03 05:38:26;;;;;;;102.63;46.40;;;2.00;92.70;;;;;;5112701;28;20015;-71
2020/12/03 05:41:00;;;;;;;102.97;44.58;;;2.00;92.60;;;;;;5095033;28;20028;-71
2020/12/03 05:43:27;;;;;;;97.68;44.55;;;2.00;92.60;;;;;;5092210;28;20035;-71
2020/12/03 05:45:54;;;;;;;93.70;44.08;;;2.00;92.60;;;;;;5098913;28;20042;-71
2020/12/03 05:48:20;;;;;;;97.55;43.25;;;2.00;92.50;;;;;;5092449;28;20035;-71
2020/12/03 05:50:46;;;;;;;93.32;44.25;;;2.00;92.50;;;;;;5106385;28;20040;-72
2020/12/03 05:53:17;;;;;;;105.68;43.58;;;2.10;92.50;;;;;;5101957;28;20096;-71
2020/12/03 05:55:43;;;;;;;94.80;42.00;;;2.10;92.50;;;;;;5103401;28;20567;-71
2020/12/03 05:58:16;;;;;;;96.70;42.13;;;2.10;92.50;;;;;;5106055;28;20051;-72
2020/12/03 06:00:41;;;;;;;100.35;43.13;;;2.10;92.40;;;;;;5110798;28;20041;-72
2020/12/03 06:03:36;;;;;;;101.25;42.95;;;2.10;92.40;;;;;;5106042;28;20413;-71
2020/12/03 06:06:44;;;;;;;96.25;42.20;;;2.10;92.40;;;;;;5097469;28;20379;-72
2020/12/03 06:09:51;;;;;;;100.25;44.13;;;2.10;92.40;;;;;;5080895;28;20044;-71
2020/12/03 06:12:27;;;;;;;95.22;43.40;;;2.20;92.40;;;;;;5091476;28;20544;-72
2020/12/03 06:15:21;;;;;;;92.25;44.47;;;2.10;92.30;;;;;;5091677;28;20135;-71
2020/12/03 06:18:20;;;;;;;96.68;40.78;;;2.20;92.40;;;;;;5091953;28;20063;-72
2020/12/03 06:20:54;;;;;;;87.70;39.83;;;2.20;92.40;;;;;;5103582;28;20062;-71
2020/12/03 06:23:41;;;;;;;104.03;43.42;;;2.10;92.40;;;;;;5108518;28;20028;-71
2020/12/03 06:26:43;;;;;;;91.50;43.55;;;2.20;92.30;;;;;;5081444;28;20028;-71
2020/12/03 06:29:23;;;;;;;97.40;41.38;;;2.20;92.30;;;;;;5096569;28;20024;-71
2020/12/03 06:32:24;;;;;;;105.38;41.45;;;2.20;92.30;;;;;;5091699;28;20380;-71
2020/12/03 06:35:01;;;;;;;89.30;40.08;;;2.20;92.40;;;;;;5105375;28;20066;-70
2020/12/03 06:37:36;;;;;;;95.00;41.95;;;2.30;92.20;;;;;;5073550;28;20036;-70
2020/12/03 06:40:07;;;;;;;95.68;39.55;;;2.30;92.20;;;;;;5073288;28;20035;-69
2020/12/03 06:42:54;;;;;;;91.57;39.47;;;2.30;92.10;;;;;;5091201;28;20136;-69
2020/12/03 06:45:32;;;;;;;84.22;41.40;;;2.30;92.10;;;;;;5107843;28;20034;-69
2020/12/03 06:48:00;;;;;;;94.30;41.70;;;2.30;92.10;;;;;;5111050;28;20034;-69
2020/12/03 06:50:45;;;;;;;89.40;40.45;;;2.30;92.10;;;;;;5100731;28;20531;-70
2020/12/03 06:53:17;;;;;;;92.05;42.70;;;2.20;92.00;;;;;;5091504;28;20132;-67
2020/12/03 06:56:07;;;;;;;93.95;40.90;;;2.20;92.00;;;;;;5104413;28;20518;-70
2020/12/03 06:59:22;;;;;;;98.45;41.70;;;2.20;92.00;;;;;;5102696;28;20116;-70
2020/12/03 07:02:37;;;;;;;91.00;40.58;;;2.30;92.10;;;;;;5089425;28;20123;-70
2020/12/03 07:05:58;;;;;;;85.80;40.22;;;2.30;92.00;;;;;;5075742;28;20036;-70
2020/12/03 07:09:04;;;;;;;90.90;40.42;;;2.30;92.10;;;;;;5089582;28;20020;-71
2020/12/03 07:12:02;;;;;;;99.68;40.05;;;2.30;92.00;;;;;;5090418;28;20036;-71
2020/12/03 07:15:12;;;;;;;87.53;38.53;;;2.30;92.00;;;;;;5067116;28;20407;-71
2020/12/03 07:18:39;;;;;;;94.18;40.33;;;2.30;91.90;;;;;;5071483;28;20101;-73
2020/12/03 07:21:11;;;;;;;92.70;38.45;;;2.30;92.00;;;;;;4989677;28;20509;-78
2020/12/03 07:23:40;;;;;;;87.10;39.53;;;2.30;91.90;;;;;;5096074;28;20380;-75
2020/12/03 07:26:17;;;;;;;91.93;39.58;;;2.30;91.90;;;;;;5098966;28;20046;-67
2020/12/03 07:28:44;;;;;;;87.75;40.08;;;2.40;91.90;;;;;;5111420;28;20042;-70
2020/12/03 07:31:20;;;;;;;83.82;37.85;;;2.40;91.90;;;;;;5102773;28;20357;-70
2020/12/03 07:34:07;;;;;;;89.82;40.92;;;2.40;91.90;;;;;;5099265;28;20114;-72
2020/12/03 07:36:45;;;;;;;91.82;39.78;;;2.40;91.80;;;;;;5110511;28;20130;-69
2020/12/03 07:39:15;;;;;;;90.82;39.85;;;2.40;91.80;;;;;;5085542;28;20072;-70
2020/12/03 07:41:58;;;;;;;91.05;39.47;;;2.40;91.70;;;;;;5096341;28;20047;-74
2020/12/03 07:44:26;;;;;;;85.90;38.42;;;2.40;91.70;;;;;;5094710;28;20029;-72
2020/12/03 07:46:55;;;;;;;79.45;36.45;;;2.40;91.70;;;;;;5097498;28;20054;-71
2020/12/03 07:49:40;;;;;;;78.65;35.90;;;2.40;91.70;;;;;;5107328;28;20043;-69
2020/12/03 07:52:20;;;;;;;89.03;40.35;;;2.40;91.70;;;;;;5109076;28;20101;-71
2020/12/03 07:54:46;;;;;;;83.88;38.17;;;2.40;91.60;;;;;;5094380;28;20040;-70
2020/12/03 07:57:34;;;;;;;86.95;40.38;;;2.40;91.60;;;;;;5114729;28;20028;-72
2020/12/03 08:00:41;;;;;;;83.40;36.80;;;2.40;91.60;;;;;;5077792;28;20043;-70
2020/12/03 08:03:06;;;;;;;81.75;40.03;;;2.40;91.60;;;;;;5099469;28;20061;-72
2020/12/03 08:06:09;;;;;;;89.20;39.72;;;2.40;91.50;;;;;;5108031;28;20101;-74
2020/12/03 08:08:38;;;;;;;83.85;38.55;;;2.50;91.60;;;;;;5083832;28;20445;-75
2020/12/03 08:11:05;;;;;;;85.07;38.53;;;2.50;91.50;;;;;;5104245;28;20020;-76
2020/12/03 08:13:35;;;;;;;92.90;38.75;;;2.50;91.50;;;;;;5085523;28;20138;-79
2020/12/03 08:16:03;;;;;;;76.65;36.47;;;2.60;91.50;;;;;;5096042;28;20028;-79
2020/12/03 08:18:50;;;;;;;85.32;36.42;;;2.60;91.40;;;;;;5094171;28;20354;-77
2020/12/03 08:21:18;;;;;;;81.60;36.53;;;2.60;91.30;;;;;;5105163;28;20039;-76
2020/12/03 08:23:52;;;;;;;81.85;39.13;;;2.60;91.30;;;;;;5095129;28;20028;-76
2020/12/03 08:26:28;;;;;;;78.93;34.90;;;2.60;91.20;;;;;;5102610;28;20020;-74
2020/12/03 08:28:54;;;;;;;79.28;36.10;;;2.60;91.20;;;;;;5093576;28;20032;-74
2020/12/03 08:31:19;;;;;;;79.00;34.67;;;2.60;91.20;;;;;;5093360;28;20027;-74
2020/12/03 08:33:51;;;;;;;77.82;34.90;;;2.70;91.20;;;;;;5075480;28;20028;-74
2020/12/03 08:36:17;;;;;;;69.03;34.67;;;2.70;91.10;;;;;;5074129;28;20036;-75
2020/12/03 08:38:46;;;;;;;77.53;36.65;;;2.70;91.10;;;;;;5094529;28;20012;-75
2020/12/03 08:41:15;;;;;;;73.90;33.97;;;2.80;91.10;;;;;;5093238;28;20051;-74
2020/12/03 08:44:04;;;;;;;80.22;35.15;;;2.80;91.10;;;;;;5093239;28;20439;-74
2020/12/03 08:46:33;;;;;;;75.75;35.67;;;2.90;91.10;;;;;;5087859;28;20031;-74
2020/12/03 08:48:59;;;;;;;75.55;35.13;;;2.90;91.10;;;;;;5112977;28;20156;-74
2020/12/03 08:51:24;;;;;;;74.55;34.22;;;2.90;91.00;;;;;;5092138;28;20118;-75
2020/12/03 08:53:50;;;;;;;77.60;35.33;;;2.90;90.90;;;;;;5074515;28;20044;-75
2020/12/03 08:56:16;;;;;;;68.45;34.63;;;3.00;90.90;;;;;;5099489;28;20064;-75
2020/12/03 08:59:03;;;;;;;78.57;37.03;;;3.00;90.80;;;;;;5082810;28;20199;-74
2020/12/03 09:01:54;;;;;;;84.65;34.60;;;3.00;90.80;;;;;;5103264;28;20032;-75
2020/12/03 09:04:28;;;;;;;80.20;35.28;;;3.10;90.70;;;;;;5047214;28;20610;-74
2020/12/03 09:06:56;;;;;;;72.45;33.15;;;3.00;90.60;;;;;;5066108;28;20028;-71
2020/12/03 09:09:25;;;;;;;74.13;34.00;;;3.10;90.60;;;;;;5062268;28;20408;-72
2020/12/03 09:11:52;;;;;;;72.25;34.25;;;3.10;90.60;;;;;;5056699;28;20016;-73
2020/12/03 09:14:19;;;;;;;78.72;34.60;;;3.10;90.60;;;;;;5064026;28;20073;-70
2020/12/03 09:16:48;;;;;;;71.28;33.30;;;3.10;90.60;;;;;;5068277;28;20832;-72
2020/12/03 09:19:24;;;;;;;68.25;32.90;;;3.10;90.40;;;;;;5048655;28;20111;-71
2020/12/03 09:21:51;;;;;;;75.03;34.10;;;3.10;90.50;;;;;;5068500;28;20043;-72
2020/12/03 09:24:22;;;;;;;68.53;32.78;;;3.10;90.50;;;;;;5067898;28;20115;-72
2020/12/03 09:26:48;;;;;;;67.85;33.33;;;3.10;90.50;;;;;;5071116;28;20035;-72
2020/12/03 09:29:14;;;;;;;67.20;35.00;;;3.20;90.50;;;;;;5070479;28;20070;-72
2020/12/03 09:31:39;;;;;;;73.88;33.30;;;3.20;90.30;;;;;;5066381;28;20489;-72
2020/12/03 09:34:08;;;;;;;72.35;32.78;;;3.20;90.30;;;;;;5052011;28;20039;-71
2020/12/03 09:36:33;;;;;;;80.00;34.67;;;3.30;90.30;;;;;;5067916;28;20098;-72
2020/12/03 09:39:00;;;;;;;70.97;33.90;;;3.20;90.30;;;;;;5069276;28;20020;-73
2020/12/03 09:41:26;;;;;;;73.53;32.97;;;3.30;90.20;;;;;;5068436;28;20116;-72
2020/12/03 09:43:55;;;;;;;72.25;34.05;;;3.30;90.20;;;;;;5070443;28;20040;-71
2020/12/03 09:46:25;;;;;;;69.28;32.67;;;3.30;90.00;;;;;;5067873;28;20020;-71
2020/12/03 09:48:56;;;;;;;62.08;31.10;;;3.30;90.00;;;;;;5060509;28;20376;-71
2020/12/03 09:51:23;;;;;;;73.40;31.60;;;3.30;90.00;;;;;;5065132;28;20021;-71
2020/12/03 09:53:50;;;;;;;63.42;31.05;;;3.30;90.00;;;;;;5043409;28;20040;-73
2020/12/03 09:56:19;;;;;;;62.30;30.52;;;3.40;89.90;;;;;;5070532;28;20045;-73
2020/12/03 09:58:44;;;;;;;61.50;30.77;;;3.40;89.90;;;;;;5071625;28;20024;-72
2020/12/03 10:01:12;;;;;;;69.45;30.77;;;3.40;89.80;;;;;;5071686;28;20028;-72
2020/12/03 10:04:05;;;;;;;69.82;31.17;;;3.50;90.00;;;;;;5071058;28;20066;-72
2020/12/03 10:06:38;;;;;;;61.13;29.17;;;3.50;90.00;;;;;;5060972;28;20028;-72
2020/12/03 10:09:12;;;;;;;64.22;30.42;;;3.50;89.90;;;;;;5069062;28;20024;-72
2020/12/03 10:11:55;;;;;;;66.72;31.05;;;3.60;89.90;;;;;;5070306;28;20111;-69
2020/12/03 10:14:53;;;;;;;57.92;29.30;;;3.60;89.60;;;;;;5051017;28;20021;-71
2020/12/03 10:17:25;;;;;;;57.88;29.35;;;3.60;89.70;;;;;;5051216;28;20037;-72
2020/12/03 10:19:52;;;;;;;65.38;30.67;;;3.70;89.80;;;;;;5054531;28;20098;-71
2020/12/03 10:22:17;;;;;;;60.42;29.27;;;3.70;89.70;;;;;;5069934;28;20552;-72
2020/12/03 10:25:11;;;;;;;63.22;28.65;;;3.70;89.50;;;;;;5069900;28;20108;-72
2020/12/03 10:28:01;;;;;;;53.95;26.95;;;3.70;89.30;;;;;;5071231;28;20396;-72
2020/12/03 10:30:36;;;;;;;58.75;28.75;;;3.80;89.70;;;;;;5067781;28;20025;-73
2020/12/03 10:33:07;;;;;;;67.13;29.80;;;3.80;89.00;;;;;;5055798;28;20061;-73
2020/12/03 10:35:34;;;;;;;60.05;28.73;;;3.80;88.80;;;;;;5051606;28;20045;-73
2020/12/03 10:38:02;;;;;;;53.50;27.73;;;3.90;88.80;;;;;;5071025;28;20029;-72
2020/12/03 10:40:29;;;;;;;57.92;29.30;;;3.90;88.70;;;;;;5055607;28;20029;-73
2020/12/03 10:43:20;;;;;;;61.60;27.40;;;4.00;88.30;;;;;;5051071;28;20115;-73
2020/12/03 10:45:50;;;;;;;58.45;28.63;;;4.00;88.30;;;;;;5050972;28;20029;-73
2020/12/03 10:48:24;;;;;;;55.60;27.00;;;4.00;88.20;;;;;;5055520;28;20017;-73
2020/12/03 10:51:06;;;;;;;63.33;29.50;;;4.10;87.90;;;;;;5070754;28;20516;-72
2020/12/03 10:53:32;;;;;;;59.17;29.20;;;4.10;87.50;;;;;;5068027;28;20048;-74
2020/12/03 10:56:00;;;;;;;52.78;28.13;;;4.10;87.50;;;;;;5067627;28;20068;-75
2020/12/03 10:58:43;;;;;;;53.90;27.33;;;4.10;87.40;;;;;;5066556;28;20656;-73
2020/12/03 11:01:19;;;;;;;57.80;28.15;;;4.10;87.30;;;;;;5074151;28;20032;-75
2020/12/03 11:03:46;;;;;;;61.00;28.33;;;4.10;87.40;;;;;;5074951;28;20500;-74
2020/12/03 11:06:14;;;;;;;51.85;26.60;;;4.20;87.30;;;;;;5074944;28;20372;-74
2020/12/03 11:08:49;;;;;;;59.08;29.48;;;4.20;86.90;;;;;;5075214;28;20025;-75
2020/12/03 11:11:15;;;;;;;55.78;28.30;;;4.10;86.40;;;;;;5074582;28;20037;-74
2020/12/03 11:13:43;;;;;;;53.47;28.65;;;4.10;86.70;;;;;;5065952;28;20127;-74
2020/12/03 11:16:11;;;;;;;53.30;27.15;;;4.10;86.60;;;;;;5036840;28;20045;-74
2020/12/03 11:18:45;;;;;;;58.80;27.48;;;4.20;86.80;;;;;;5047308;28;20029;-74
2020/12/03 11:21:21;;;;;;;50.10;26.58;;;4.20;86.90;;;;;;5074735;28;20028;-74
2020/12/03 11:24:17;;;;;;;56.33;28.55;;;4.20;86.90;;;;;;5073624;28;20503;-73
2020/12/03 11:26:49;;;;;;;55.97;29.35;;;4.20;86.80;;;;;;5074447;28;20082;-73
2020/12/03 11:29:16;;;;;;;58.35;29.17;;;4.20;86.40;;;;;;5072608;28;20462;-74
2020/12/03 11:31:46;;;;;;;51.42;27.05;;;4.20;86.60;;;;;;5059615;28;20039;-73
2020/12/03 11:34:14;;;;;;;56.30;27.70;;;4.30;86.70;;;;;;5045249;28;20059;-73
2020/12/03 11:36:43;;;;;;;53.17;25.00;;;4.30;86.20;;;;;;5074158;28;20032;-69
2020/12/03 11:39:10;;;;;;;50.00;25.67;;;4.30;86.40;;;;;;5073758;28;20111;-72
2020/12/03 11:42:09;;;;;;;49.15;25.30;;;4.30;86.30;;;;;;5070739;28;20043;-68
2020/12/03 11:49:47;;;;;;;50.65;26.25;;;4.40;86.10;;;;;;5060988;28;20036;-69
2020/12/03 11:52:14;;;;;;;51.60;27.02;;;4.40;85.90;;;;;;5072354;28;20033;-68
2020/12/03 11:54:41;;;;;;;47.90;25.58;;;4.40;86.00;;;;;;5055785;28;20029;-69
2020/12/03 11:57:08;;;;;;;46.55;24.83;;;4.50;85.70;;;;;;5071289;28;20495;-70
2020/12/03 11:59:35;;;;;;;49.75;25.33;;;4.40;85.40;;;;;;5069124;28;20075;-69
2020/12/03 12:02:05;;;;;;;50.10;25.50;;;4.40;85.40;;;;;;5067739;28;20033;-68
2020/12/03 12:07:20;;;;;;;51.83;27.35;;;4.40;84.90;;;;;;5073094;28;20032;-68
2020/12/03 12:09:56;;;;;;;51.70;24.83;;;4.40;84.90;;;;;;5073972;28;20051;-68
2020/12/03 12:12:24;;;;;;;45.70;24.20;;;4.40;84.80;;;;;;5061987;28;20037;-68
2020/12/03 12:14:49;;;;;;;49.97;23.73;;;4.40;84.90;;;;;;5072526;28;20029;-67
2020/12/03 12:17:17;;;;;;;48.25;24.55;;;4.50;85.10;;;;;;5070922;28;20036;-69
2020/12/03 12:19:44;;;;;;;47.97;24.50;;;4.50;85.00;;;;;;5051775;28;20171;-69
2020/12/03 12:22:12;;;;;;;47.53;24.17;;;4.50;84.60;;;;;;5065671;28;20048;-68
2020/12/03 12:24:45;;;;;;;49.08;24.52;;;4.50;84.90;;;;;;5061181;28;20078;-69
2020/12/03 12:27:11;;;;;;;50.08;25.23;;;4.50;84.70;;;;;;5036387;28;20060;-70
2020/12/03 12:29:37;;;;;;;45.55;24.60;;;4.50;84.60;;;;;;5063094;28;20036;-70
2020/12/03 12:32:04;;;;;;;43.95;22.30;;;4.50;84.40;;;;;;5069797;28;20032;-73
2020/12/03 12:34:31;;;;;;;43.88;22.50;;;4.60;84.30;;;;;;5064682;28;20167;-68
2020/12/03 12:36:56;;;;;;;44.78;22.55;;;4.60;84.20;;;;;;5063327;28;20036;-70
2020/12/03 12:39:22;;;;;;;44.63;23.40;;;4.60;84.20;;;;;;5062553;28;20528;-69
2020/12/03 12:42:03;;;;;;;41.38;22.88;;;4.60;84.10;;;;;;5058640;28;20119;-67
2020/12/03 12:44:29;;;;;;;43.95;21.75;;;4.60;83.50;;;;;;5071511;28;20032;-66
2020/12/03 12:46:56;;;;;;;45.80;23.38;;;4.60;83.70;;;;;;5062680;28;20094;-68
2020/12/03 12:49:21;;;;;;;47.40;23.30;;;4.60;83.50;;;;;;5062623;28;20093;-69
2020/12/03 12:51:47;;;;;;;44.25;23.85;;;4.60;83.10;;;;;;5071063;28;20115;-69
2020/12/03 12:54:13;;;;;;;46.28;24.67;;;4.60;82.90;;;;;;5069614;28;20488;-69
2020/12/03 12:56:39;;;;;;;43.10;22.50;;;4.60;82.90;;;;;;5070734;28;20063;-69
2020/12/03 12:59:05;;;;;;;43.35;22.73;;;4.60;83.00;;;;;;5069385;28;20032;-68
2020/12/03 13:01:30;;;;;;;41.00;22.67;;;4.60;82.60;;;;;;5071157;28;20031;-69
2020/12/03 13:03:55;;;;;;;45.03;22.48;;;4.70;82.70;;;;;;5046645;28;20028;-68
2020/12/03 13:06:21;;;;;;;44.47;22.45;;;4.60;82.40;;;;;;5059752;28;20025;-69
2020/12/03 13:08:46;;;;;;;46.28;22.05;;;4.70;82.30;;;;;;5053135;28;20028;-69
2020/12/03 13:11:12;;;;;;;41.70;22.77;;;4.70;82.40;;;;;;5044427;28;20032;-69